Saigon Express — VRBT7 — position and weather

sailwx.info

Track history (hours):
 
Tides and Currents Weather Stations Pressure Air Temp Water Temp Dewpoint Dewpoint Depression Visibility Wind Speed Wind Dir Waves Ship Positions

Saigon Express

Last reported at 2015-Jun-30 06:00 UTC. Time now 2015-Jul-01 21:11 UTC.
Position N 35°24' W 048°06'.

Length 260 m; draft 11.7 m.

Type: Ship (hazmat cat A). MMSI: 477106800.

Wind from 190 at 12 knots

Waves 0.5 meters (2 feet), 6 second period

Barometer 1026.0 mb
Air temperature 22.0 ° C
Visibility: greater than 10.8 NM
Dewpoint 15.3 ° C
Water temperature 25.0 ° C

Date/timePositionNaut miles runAvg speedWind from/ knotsBaromVisibWave heightAir tempDewpointWater temp
2015-Jun-30 06:00N 35°24' W 048°06'37515.6 190 / 121026.010.8 0.522.015.325.0
2015-Jun-29 06:00N 33°42' W 055°24'46515.5 150 / 151022.010.8 0.525.022.029.0
2015-Jun-28 00:00N 31°12' W 064°06'9515.8 230 / 151022.010.8 0.533.031.731.0
2015-Jun-27 18:00N 30°36' W 065°48'75314.9 230 / 151022.010.8 0.529.026.230.0
2015-Jun-25 15:33N 26°13' W 079°11'1514.9
2015-Jun-25 14:34N 26°05' W 079°25'1616.4
2015-Jun-25 13:33N 25°49' W 079°27'  
2015-Jun-22 10:04N 29°55' W 090°07'2 2.9
2015-Jun-22 09:32N 29°55' W 090°05'8 7.7
2015-Jun-22 08:32N 29°55' W 089°56'7 6.8
2015-Jun-22 07:29N 29°49' W 090°00'11 9.3
2015-Jun-22 06:21N 29°39' W 089°57'252 9.3
2015-Jun-21 03:19N 29°21' W 094°46'1013.0
2015-Jun-21 02:33N 29°29' W 094°52'1211.6
2015-Jun-21 01:33N 29°39' W 094°58'2 2.1
2015-Jun-21 00:32N 29°41' W 094°60'0 0.0
2015-Jun-20 23:32N 29°41' W 094°60'0 0.0
2015-Jun-20 22:32N 29°41' W 094°60'0 0.0
2015-Jun-20 21:29N 29°41' W 094°60'0 0.0
2015-Jun-20 20:32N 29°41' W 094°60'0 0.0
2015-Jun-20 19:32N 29°41' W 094°60'0 0.0
2015-Jun-20 18:29N 29°41' W 094°60'0 0.0
2015-Jun-20 17:32N 29°41' W 094°60'0 0.0
2015-Jun-20 16:32N 29°41' W 094°60'0 0.0
2015-Jun-20 15:32N 29°41' W 094°60'0 0.0
2015-Jun-20 14:32N 29°41' W 094°60'0 0.0
2015-Jun-20 13:32N 29°41' W 094°60'0 0.0
2015-Jun-20 12:32N 29°41' W 094°60'0 0.0
2015-Jun-20 11:29N 29°41' W 094°60'0 0.0
2015-Jun-20 10:32N 29°41' W 094°60'0 0.0
2015-Jun-20 09:14N 29°41' W 094°60'0 0.0
2015-Jun-20 08:32N 29°41' W 094°60'0 0.0
2015-Jun-20 07:32N 29°41' W 094°60'0 0.0
2015-Jun-20 06:31N 29°41' W 094°60'  
Track history (hours):
 
Tides and Currents Weather Stations Pressure Air Temp Water Temp Dewpoint Dewpoint Depression Visibility Wind Speed Wind Dir Waves Ship Positions

Saigon Express

Last reported at 2015-Jun-30 06:00 UTC. Time now 2015-Jul-01 21:11 UTC.
Position N 35°24' W 048°06'.

Length 260 m; draft 11.7 m.

Type: Ship (hazmat cat A). MMSI: 477106800.

Wind from 190 at 12 knots

Waves 0.5 meters (2 feet), 6 second period

Barometer 1026.0 mb
Air temperature 22.0 ° C
Visibility: greater than 10.8 NM
Dewpoint 15.3 ° C
Water temperature 25.0 ° C

Date/timePositionNaut miles runAvg speedWind from/ knotsBaromVisibWave heightAir tempDewpointWater temp
2015-Jun-30 06:00N 35°24' W 048°06'37515.6 190 / 121026.010.8 0.522.015.325.0
2015-Jun-29 06:00N 33°42' W 055°24'46515.5 150 / 151022.010.8 0.525.022.029.0
2015-Jun-28 00:00N 31°12' W 064°06'9515.8 230 / 151022.010.8 0.533.031.731.0
2015-Jun-27 18:00N 30°36' W 065°48'75314.9 230 / 151022.010.8 0.529.026.230.0
2015-Jun-25 15:33N 26°13' W 079°11'1514.9
2015-Jun-25 14:34N 26°05' W 079°25'1616.4
2015-Jun-25 13:33N 25°49' W 079°27'  
2015-Jun-22 10:04N 29°55' W 090°07'2 2.9
2015-Jun-22 09:32N 29°55' W 090°05'8 7.7
2015-Jun-22 08:32N 29°55' W 089°56'7 6.8
2015-Jun-22 07:29N 29°49' W 090°00'11 9.3
2015-Jun-22 06:21N 29°39' W 089°57'252 9.3
2015-Jun-21 03:19N 29°21' W 094°46'1013.0
2015-Jun-21 02:33N 29°29' W 094°52'1211.6
2015-Jun-21 01:33N 29°39' W 094°58'2 2.1
2015-Jun-21 00:32N 29°41' W 094°60'0 0.0
2015-Jun-20 23:32N 29°41' W 094°60'0 0.0
2015-Jun-20 22:32N 29°41' W 094°60'0 0.0
2015-Jun-20 21:29N 29°41' W 094°60'0 0.0
2015-Jun-20 20:32N 29°41' W 094°60'0 0.0
2015-Jun-20 19:32N 29°41' W 094°60'0 0.0
2015-Jun-20 18:29N 29°41' W 094°60'0 0.0
2015-Jun-20 17:32N 29°41' W 094°60'0 0.0
2015-Jun-20 16:32N 29°41' W 094°60'0 0.0
2015-Jun-20 15:32N 29°41' W 094°60'0 0.0
2015-Jun-20 14:32N 29°41' W 094°60'0 0.0
2015-Jun-20 13:32N 29°41' W 094°60'0 0.0
2015-Jun-20 12:32N 29°41' W 094°60'0 0.0
2015-Jun-20 11:29N 29°41' W 094°60'0 0.0
2015-Jun-20 10:32N 29°41' W 094°60'0 0.0
2015-Jun-20 09:14N 29°41' W 094°60'0 0.0
2015-Jun-20 08:32N 29°41' W 094°60'0 0.0
2015-Jun-20 07:32N 29°41' W 094°60'0 0.0
2015-Jun-20 06:31N 29°41' W 094°60'  

Dump ship's entire track history